Time;durP1;ratioP1;P1;durP2;ratioP2;P2;SDS_P1;SDS_P2;PMS_P1;PMS_P2;Temp;Humidity;BMP_temperature;BMP_pressure;BME280_temperature;BME280_humidity;BME280_pressure;Samples;Min_cycle;Max_cycle;Signal;HPM_P1;HPM_P2
2022/06/23 00:00:06;;;;;;;0.00;0.00;;;11.50;99.90;;;;;;4889093;29;20044;-84
2022/06/23 00:02:34;;;;;;;0.00;0.00;;;11.50;99.90;;;;;;4891999;29;20037;-84
2022/06/23 00:05:07;;;;;;;0.00;0.00;;;11.50;99.90;;;;;;4886811;29;20045;-84
2022/06/23 00:07:36;;;;;;;0.15;0.15;;;11.40;99.90;;;;;;4870581;29;20440;-84
2022/06/23 00:10:14;;;;;;;0.00;0.00;;;11.40;99.90;;;;;;4877108;29;20123;-84
2022/06/23 00:12:42;;;;;;;0.45;0.45;;;11.40;99.90;;;;;;4892293;29;20127;-84
2022/06/23 00:15:07;;;;;;;0.00;0.00;;;11.90;99.90;;;;;;4871061;29;20041;-84
2022/06/23 00:17:45;;;;;;;0.00;0.00;;;11.30;99.90;;;;;;4891823;29;20041;-84
2022/06/23 00:20:30;;;;;;;0.13;0.13;;;11.30;99.90;;;;;;4890658;29;20041;-84
2022/06/23 00:23:13;;;;;;;0.05;0.05;;;11.30;99.90;;;;;;4894039;29;20041;-84
2022/06/23 00:26:00;;;;;;;0.00;0.00;;;11.30;99.90;;;;;;4874383;29;20103;-84
2022/06/23 00:28:31;;;;;;;;;;;11.30;99.90;;;;;;4884961;29;20051;-84
2022/06/23 00:31:00;;;;;;;0.00;0.00;;;11.30;99.90;;;;;;4869473;29;20305;-86
2022/06/23 00:33:38;;;;;;;0.10;0.10;;;11.30;99.90;;;;;;4892901;29;20053;-85
2022/06/23 00:36:14;;;;;;;0.00;0.00;;;11.30;99.90;;;;;;4887316;29;20045;-86
2022/06/23 00:38:40;;;;;;;0.10;0.10;;;11.30;99.90;;;;;;4884691;29;20045;-86
2022/06/23 00:41:20;;;;;;;0.10;0.10;;;11.20;99.90;;;;;;4884686;29;20049;-86
2022/06/23 00:43:49;;;;;;;0.00;0.00;;;11.20;99.90;;;;;;4896543;29;20755;-86
2022/06/23 00:46:26;;;;;;;0.10;0.10;;;11.20;99.90;;;;;;4886810;29;20052;-86
2022/06/23 00:49:07;;;;;;;0.10;0.10;;;11.20;99.90;;;;;;4897497;29;20048;-87
2022/06/23 00:51:49;;;;;;;0.20;0.20;;;11.20;99.90;;;;;;4871706;29;20048;-86
2022/06/23 00:54:31;;;;;;;0.10;0.10;;;11.20;99.90;;;;;;4890947;29;20049;-86
2022/06/23 00:57:06;;;;;;;0.00;0.00;;;11.10;99.90;;;;;;4888832;29;20124;-86
2022/06/23 00:59:43;;;;;;;0.00;0.00;;;11.10;99.90;;;;;;4888588;29;20137;-86
2022/06/23 01:02:23;;;;;;;0.00;0.00;;;11.10;99.90;;;;;;4893286;29;20084;-85
2022/06/23 01:04:52;;;;;;;0.47;0.35;;;11.00;99.90;;;;;;4873272;29;20092;-86
2022/06/23 01:07:50;;;;;;;0.00;0.00;;;11.00;99.90;;;;;;4878629;29;20047;-86
2022/06/23 01:10:20;;;;;;;0.00;0.00;;;11.00;99.90;;;;;;4891068;29;20447;-86
2022/06/23 01:13:06;;;;;;;0.35;0.28;;;11.00;99.90;;;;;;4892823;29;20123;-86
2022/06/23 01:15:38;;;;;;;0.00;0.00;;;11.00;99.90;;;;;;4874818;29;20045;-86
2022/06/23 01:18:10;;;;;;;0.00;0.00;;;11.00;99.90;;;;;;4891390;29;20082;-86
2022/06/23 01:20:45;;;;;;;0.20;0.20;;;11.00;99.90;;;;;;4873387;29;20052;-86
2022/06/23 01:23:30;;;;;;;0.10;0.10;;;11.00;99.90;;;;;;4893803;29;20056;-86
2022/06/23 01:26:20;;;;;;;2.47;1.13;;;11.10;99.90;;;;;;4875428;29;20077;-86
2022/06/23 01:28:46;;;;;;;0.00;0.00;;;11.10;99.90;;;;;;4890721;29;20139;-86
2022/06/23 01:31:21;;;;;;;0.25;0.25;;;11.10;99.90;;;;;;4871829;29;20116;-86
2022/06/23 01:34:02;;;;;;;0.32;0.32;;;11.10;99.90;;;;;;4875557;29;20123;-87
2022/06/23 01:36:41;;;;;;;0.00;0.00;;;11.10;99.90;;;;;;4883672;29;20143;-86
2022/06/23 01:39:13;;;;;;;0.10;0.10;;;11.10;99.90;;;;;;4895373;29;20521;-86
2022/06/23 01:41:42;;;;;;;0.00;0.00;;;11.10;99.90;;;;;;4899003;29;20245;-86
2022/06/23 01:44:13;;;;;;;0.10;0.10;;;11.10;99.90;;;;;;4873914;29;20052;-86
2022/06/23 01:46:42;;;;;;;0.30;0.20;;;11.00;99.90;;;;;;4872830;29;20101;-86
2022/06/23 01:49:31;;;;;;;0.40;0.40;;;11.00;99.90;;;;;;4877759;29;20036;-86
2022/06/23 01:52:10;;;;;;;0.10;0.10;;;11.00;99.90;;;;;;4879525;29;20388;-86
2022/06/23 01:54:38;;;;;;;0.00;0.00;;;10.90;99.90;;;;;;4896378;29;20055;-86
2022/06/23 01:57:09;;;;;;;0.35;0.25;;;10.90;99.90;;;;;;4893497;29;20040;-86
2022/06/23 01:59:57;;;;;;;0.15;0.15;;;10.90;99.90;;;;;;4878057;29;20396;-86
2022/06/23 02:02:34;;;;;;;0.20;0.13;;;10.90;99.90;;;;;;4892764;29;20044;-86
2022/06/23 02:05:37;;;;;;;0.20;0.20;;;10.90;99.90;;;;;;4908200;29;20135;-86
2022/06/23 02:08:21;;;;;;;0.00;0.00;;;10.80;99.90;;;;;;4873889;29;20064;-86
2022/06/23 02:11:01;;;;;;;0.20;0.20;;;10.90;99.90;;;;;;4870982;29;20049;-85
2022/06/23 02:13:34;;;;;;;0.45;0.32;;;10.90;99.90;;;;;;4904825;29;20068;-85
2022/06/23 02:16:16;;;;;;;0.10;0.10;;;11.00;99.90;;;;;;4878645;29;20071;-86
2022/06/23 02:18:55;;;;;;;0.95;0.57;;;10.90;99.90;;;;;;4891775;29;20082;-86
2022/06/23 02:21:35;;;;;;;0.10;0.10;;;10.90;99.90;;;;;;4877868;29;20056;-86
2022/06/23 02:24:14;;;;;;;0.88;0.47;;;10.80;99.90;;;;;;4887647;29;20045;-86
2022/06/23 02:27:17;;;;;;;0.10;0.10;;;10.70;99.90;;;;;;4876450;29;20044;-86
2022/06/23 02:30:05;;;;;;;0.10;0.10;;;10.70;99.90;;;;;;4873506;29;20049;-86
2022/06/23 02:32:34;;;;;;;0.00;0.00;;;10.60;99.90;;;;;;4888977;29;20056;-86
2022/06/23 02:35:07;;;;;;;0.45;0.28;;;10.60;99.90;;;;;;4888764;29;20389;-86
2022/06/23 02:37:54;;;;;;;0.00;0.00;;;10.70;99.90;;;;;;4889409;29;20500;-86
2022/06/23 02:40:28;;;;;;;1.30;0.80;;;10.70;99.90;;;;;;4870252;29;20045;-86
2022/06/23 02:43:01;;;;;;;0.45;0.45;;;10.70;99.90;;;;;;4876064;29;20401;-86
2022/06/23 02:45:52;;;;;;;0.00;0.00;;;10.60;99.90;;;;;;4875413;29;20045;-87
2022/06/23 02:48:39;;;;;;;0.55;0.13;;;10.70;99.90;;;;;;4889135;29;20133;-87
2022/06/23 02:51:08;;;;;;;0.00;0.00;;;10.60;99.90;;;;;;4876247;29;20045;-87
2022/06/23 02:53:49;;;;;;;0.00;0.00;;;10.60;99.90;;;;;;4888235;29;20071;-87
2022/06/23 02:56:27;;;;;;;0.00;0.00;;;10.50;99.90;;;;;;4886358;29;20060;-87
2022/06/23 02:59:01;;;;;;;0.10;0.10;;;10.50;99.90;;;;;;4870577;29;20049;-87
2022/06/23 03:01:39;;;;;;;0.00;0.00;;;10.50;99.90;;;;;;4875164;29;20127;-84
2022/06/23 03:04:29;;;;;;;0.00;0.00;;;10.50;99.90;;;;;;4889896;29;20399;-84
2022/06/23 03:06:59;;;;;;;0.10;0.10;;;10.40;99.90;;;;;;4873517;29;20064;-84
2022/06/23 03:09:41;;;;;;;0.43;0.38;;;10.30;99.90;;;;;;4889194;29;20060;-84
2022/06/23 03:12:23;;;;;;;0.13;0.13;;;10.40;99.90;;;;;;4891536;29;20044;-84
2022/06/23 03:15:17;;;;;;;0.00;0.00;;;10.40;99.90;;;;;;4891326;29;20072;-84
2022/06/23 03:17:52;;;;;;;0.00;0.00;;;10.50;99.90;;;;;;4884271;29;20100;-86
2022/06/23 03:20:59;;;;;;;0.15;0.15;;;10.40;99.90;;;;;;4896240;29;20079;-86
2022/06/23 03:23:42;;;;;;;1.08;0.45;;;10.40;99.90;;;;;;4887474;29;20042;-85
2022/06/23 03:26:19;;;;;;;0.90;0.47;;;10.50;99.90;;;;;;4888576;29;20128;-86
2022/06/23 03:28:52;;;;;;;0.45;0.45;;;10.50;99.90;;;;;;4876947;29;20045;-86
2022/06/23 03:31:26;;;;;;;0.68;0.68;;;10.60;99.90;;;;;;4892605;29;20152;-86
2022/06/23 03:33:56;;;;;;;0.17;0.17;;;10.70;99.90;;;;;;4890715;29;20053;-87
2022/06/23 03:36:29;;;;;;;0.22;0.22;;;10.70;99.90;;;;;;4890794;29;20050;-87
2022/06/23 03:42:12;;;;;;;0.17;0.17;;;10.80;99.90;;;;;;4889045;29;20052;-87
2022/06/23 03:44:55;;;;;;;0.20;0.20;;;10.80;99.90;;;;;;4878814;29;20049;-87
2022/06/23 03:47:24;;;;;;;0.10;0.10;;;10.80;99.90;;;;;;4872904;29;20044;-87
2022/06/23 03:50:01;;;;;;;0.00;0.00;;;10.80;99.90;;;;;;4883840;29;20053;-86
2022/06/23 03:52:41;;;;;;;0.10;0.10;;;10.80;99.90;;;;;;4891091;29;20048;-86
2022/06/23 03:55:24;;;;;;;0.17;0.17;;;10.90;99.90;;;;;;4889373;29;20116;-86
2022/06/23 03:58:01;;;;;;;0.30;0.30;;;10.90;99.90;;;;;;4881392;29;20073;-86
2022/06/23 04:00:39;;;;;;;0.57;0.35;;;11.00;99.90;;;;;;4884997;29;20055;-86
2022/06/23 04:03:37;;;;;;;0.10;0.10;;;11.00;99.90;;;;;;4884600;29;20661;-86
2022/06/23 04:06:11;;;;;;;;;;;11.00;99.90;;;;;;4867837;29;20108;-86
2022/06/23 04:09:03;;;;;;;0.00;0.00;;;11.00;99.90;;;;;;4892653;29;19919;-86
2022/06/23 04:12:04;;;;;;;0.10;0.10;;;11.00;99.90;;;;;;4862548;29;20053;-85
2022/06/23 04:14:56;;;;;;;0.70;0.70;;;11.10;99.90;;;;;;4863388;29;20123;-86
2022/06/23 04:17:45;;;;;;;0.17;0.17;;;11.10;99.90;;;;;;4883630;29;20051;-86
2022/06/23 04:20:22;;;;;;;0.00;0.00;;;11.20;99.90;;;;;;4887771;29;20045;-86
2022/06/23 04:22:57;;;;;;;1.85;0.70;;;11.30;99.90;;;;;;4894473;29;20578;-87
2022/06/23 04:25:26;;;;;;;0.03;0.03;;;11.40;99.90;;;;;;4867314;29;20082;-88
2022/06/23 04:27:56;;;;;;;0.52;0.52;;;11.40;99.90;;;;;;4891712;29;20110;-87
2022/06/23 04:30:24;;;;;;;0.15;0.15;;;11.50;99.90;;;;;;4902791;29;20052;-88
2022/06/23 04:32:51;;;;;;;0.00;0.00;;;11.60;99.90;;;;;;4891159;29;20048;-87
2022/06/23 04:35:27;;;;;;;0.10;0.10;;;11.60;99.90;;;;;;4886847;29;20049;-88
2022/06/23 04:38:04;;;;;;;0.30;0.30;;;11.70;99.90;;;;;;4873639;29;20123;-88
2022/06/23 04:40:41;;;;;;;0.10;0.10;;;11.80;99.90;;;;;;4869001;29;20049;-88
2022/06/23 04:43:38;;;;;;;0.98;0.68;;;11.90;99.90;;;;;;4886656;29;20060;-88
2022/06/23 04:46:26;;;;;;;0.20;0.20;;;12.00;99.90;;;;;;4883820;29;20128;-88
2022/06/23 04:49:02;;;;;;;0.98;0.90;;;12.10;99.90;;;;;;4886815;29;20051;-88
2022/06/23 04:51:32;;;;;;;0.30;0.30;;;12.30;99.90;;;;;;4902964;29;20048;-88
2022/06/23 04:54:18;;;;;;;0.32;0.32;;;12.40;99.90;;;;;;4883517;29;20044;-88
2022/06/23 04:56:48;;;;;;;0.32;0.32;;;12.40;99.90;;;;;;4886860;29;20052;-88
2022/06/23 04:59:21;;;;;;;0.25;0.25;;;12.60;99.90;;;;;;4874841;29;20563;-88
2022/06/23 05:01:48;;;;;;;0.20;0.20;;;12.70;99.90;;;;;;4902434;29;20128;-88
2022/06/23 05:04:24;;;;;;;0.30;0.30;;;12.80;99.90;;;;;;4887419;29;20380;-88
2022/06/23 05:06:53;;;;;;;0.25;0.25;;;13.00;99.90;;;;;;4891107;29;20700;-88
2022/06/23 05:09:28;;;;;;;0.10;0.10;;;13.10;99.90;;;;;;4872061;29;20499;-88
2022/06/23 05:11:56;;;;;;;0.20;0.20;;;13.30;99.90;;;;;;4890797;29;20479;-88
2022/06/23 05:14:29;;;;;;;0.68;0.68;;;13.40;99.90;;;;;;4873077;29;20041;-88
2022/06/23 05:17:06;;;;;;;0.20;0.20;;;13.50;99.90;;;;;;4890573;29;20056;-88
2022/06/23 05:19:36;;;;;;;0.38;0.38;;;13.60;99.90;;;;;;4886503;29;20064;-88
2022/06/23 05:22:12;;;;;;;2.17;1.08;;;13.70;99.90;;;;;;4890609;29;20136;-88
2022/06/23 05:24:43;;;;;;;0.20;0.20;;;13.90;99.90;;;;;;4875378;29;20040;-88
2022/06/23 05:27:36;;;;;;;0.10;0.10;;;14.00;99.90;;;;;;4883332;29;20045;-86
2022/06/23 05:30:14;;;;;;;0.10;0.10;;;14.40;99.90;;;;;;4890391;29;20068;-83
2022/06/23 05:32:43;;;;;;;0.20;0.20;;;15.50;99.90;;;;;;4875090;29;20142;-83
2022/06/23 05:35:18;;;;;;;0.00;0.00;;;17.40;99.90;;;;;;4896892;29;20053;-85
2022/06/23 05:37:46;;;;;;;0.70;0.70;;;18.40;99.90;;;;;;4875115;29;20044;-85
2022/06/23 05:40:47;;;;;;;0.30;0.30;;;19.00;99.90;;;;;;4889110;29;20049;-85
2022/06/23 05:43:14;;;;;;;0.20;0.20;;;20.50;99.90;;;;;;4873750;29;20113;-85
2022/06/23 05:45:44;;;;;;;0.32;0.32;;;20.70;99.90;;;;;;4892321;29;20457;-85
2022/06/23 05:48:18;;;;;;;0.20;0.20;;;21.50;99.90;;;;;;4874268;29;20044;-85
2022/06/23 05:50:59;;;;;;;0.17;0.17;;;22.10;99.90;;;;;;4891888;29;20139;-85
2022/06/23 05:53:35;;;;;;;0.10;0.10;;;22.70;99.90;;;;;;4888018;29;20077;-85
2022/06/23 05:56:12;;;;;;;0.00;0.00;;;23.00;99.90;;;;;;4877223;29;20044;-85
2022/06/23 05:58:46;;;;;;;0.30;0.25;;;23.50;99.90;;;;;;4875735;29;20048;-85
2022/06/23 06:01:24;;;;;;;0.10;0.10;;;23.50;99.90;;;;;;4878663;29;20044;-85
2022/06/23 06:04:01;;;;;;;0.90;0.52;;;23.80;99.90;;;;;;4887615;29;20044;-85
2022/06/23 06:06:27;;;;;;;0.00;0.00;;;24.00;99.90;;;;;;4897970;29;20521;-85
2022/06/23 06:11:48;;;;;;;0.25;0.22;;;24.40;99.90;;;;;;4890628;29;20049;-86
2022/06/23 06:14:17;;;;;;;0.20;0.20;;;24.90;99.90;;;;;;4894060;29;20503;-85
2022/06/23 06:16:43;;;;;;;0.10;0.10;;;25.20;99.90;;;;;;4891231;29;20048;-86
2022/06/23 06:19:16;;;;;;;0.65;0.45;;;25.50;99.40;;;;;;4879786;29;20063;-86
2022/06/23 06:21:44;;;;;;;0.10;0.10;;;25.80;97.80;;;;;;4889524;29;20045;-88
2022/06/23 06:24:17;;;;;;;0.32;0.32;;;25.90;97.20;;;;;;4868881;29;20044;-86
2022/06/23 06:26:47;;;;;;;0.68;0.65;;;25.90;97.20;;;;;;4891881;29;20048;-86
2022/06/23 06:29:35;;;;;;;0.35;0.35;;;26.00;97.80;;;;;;4877288;29;20120;-86
2022/06/23 06:32:19;;;;;;;0.10;0.10;;;26.20;97.20;;;;;;4894912;29;20049;-85
2022/06/23 06:34:53;;;;;;;0.30;0.30;;;26.70;96.70;;;;;;4884642;29;20044;-85
2022/06/23 06:37:23;;;;;;;0.38;0.38;;;26.80;96.20;;;;;;4893449;29;20091;-86
2022/06/23 06:39:54;;;;;;;0.05;0.05;;;26.70;95.90;;;;;;4860995;29;20049;-87
2022/06/23 06:42:30;;;;;;;0.17;0.17;;;27.10;96.30;;;;;;4895627;29;20552;-88
2022/06/23 06:45:02;;;;;;;0.13;0.13;;;27.60;96.00;;;;;;4875580;29;20128;-87
2022/06/23 06:47:33;;;;;;;0.22;0.22;;;27.80;95.60;;;;;;4878418;29;20127;-87
2022/06/23 06:50:05;;;;;;;0.10;0.10;;;27.90;94.40;;;;;;4890675;29;20055;-87
2022/06/23 06:52:31;;;;;;;0.17;0.17;;;28.30;94.70;;;;;;4893709;29;20041;-87
2022/06/23 06:55:17;;;;;;;1.05;0.95;;;28.60;93.10;;;;;;4871172;29;20056;-86
2022/06/23 06:57:49;;;;;;;0.10;0.10;;;29.00;93.70;;;;;;4879313;29;20048;-86
2022/06/23 07:00:34;;;;;;;0.38;0.32;;;29.10;91.90;;;;;;4891810;29;20063;-87
2022/06/23 07:03:02;;;;;;;1.67;1.20;;;29.20;92.30;;;;;;4869558;29;20044;-86
2022/06/23 07:05:34;;;;;;;0.20;0.20;;;29.10;91.40;;;;;;4876443;29;20043;-86
2022/06/23 07:08:13;;;;;;;0.20;0.20;;;29.10;90.80;;;;;;4889589;29;20069;-86
2022/06/23 07:10:47;;;;;;;0.15;0.15;;;29.40;91.00;;;;;;4889284;29;20052;-88
2022/06/23 07:13:29;;;;;;;0.30;0.30;;;29.60;90.40;;;;;;4889390;29;20102;-87
2022/06/23 07:16:25;;;;;;;0.10;0.10;;;29.60;90.30;;;;;;4877724;29;20049;-87
2022/06/23 07:18:58;;;;;;;;;;;30.10;91.10;;;;;;4886534;29;20049;-87
2022/06/23 07:21:40;;;;;;;0.10;0.10;;;30.50;90.90;;;;;;4885073;29;20361;-87
2022/06/23 07:24:17;;;;;;;0.35;0.35;;;30.60;88.70;;;;;;4887561;29;20048;-87
2022/06/23 07:26:51;;;;;;;0.20;0.20;;;30.70;87.50;;;;;;4870819;29;20134;-87
2022/06/23 07:29:44;;;;;;;0.93;0.50;;;30.60;88.10;;;;;;4892458;29;20385;-86
2022/06/23 07:32:33;;;;;;;0.20;0.20;;;31.20;89.10;;;;;;4889137;29;20115;-87
2022/06/23 07:35:08;;;;;;;0.10;0.10;;;31.60;89.60;;;;;;4870674;29;20045;-86
2022/06/23 07:38:01;;;;;;;0.38;0.38;;;32.10;87.00;;;;;;4868658;29;20045;-86
2022/06/23 07:40:32;;;;;;;2.28;0.17;;;32.60;86.20;;;;;;4881321;29;20510;-86
2022/06/23 07:43:05;;;;;;;0.20;0.20;;;33.00;82.30;;;;;;4872245;29;20064;-86
2022/06/23 07:46:01;;;;;;;0.57;0.20;;;33.30;82.10;;;;;;4901997;29;20056;-86
2022/06/23 07:48:32;;;;;;;0.40;0.40;;;33.50;81.80;;;;;;4871583;29;20127;-87
2022/06/23 07:51:00;;;;;;;0.10;0.10;;;33.60;79.20;;;;;;4872399;29;20052;-87
2022/06/23 07:53:30;;;;;;;0.15;0.15;;;33.60;78.60;;;;;;4889036;29;20456;-87
2022/06/23 07:55:56;;;;;;;0.10;0.10;;;33.60;78.80;;;;;;4887356;29;20056;-86
2022/06/23 07:58:28;;;;;;;0.20;0.20;;;33.60;78.00;;;;;;4872186;29;20507;-87
2022/06/23 08:01:00;;;;;;;0.15;0.15;;;33.80;80.70;;;;;;4883716;29;20092;-86
2022/06/23 08:03:53;;;;;;;0.68;0.68;;;34.20;76.70;;;;;;4885052;29;20138;-86
2022/06/23 08:06:21;;;;;;;0.10;0.10;;;34.00;76.50;;;;;;4881429;29;20056;-86
2022/06/23 08:08:49;;;;;;;0.40;0.40;;;34.30;75.90;;;;;;4872285;29;20150;-87
2022/06/23 08:14:08;;;;;;;0.32;0.32;;;34.40;76.10;;;;;;4899060;29;20080;-87
2022/06/23 08:16:50;;;;;;;0.40;0.40;;;34.80;76.40;;;;;;4880420;29;20495;-87
2022/06/23 08:19:57;;;;;;;10.40;0.90;;;34.90;72.80;;;;;;4872158;29;20598;-87
2022/06/23 08:22:29;;;;;;;0.25;0.25;;;34.90;73.20;;;;;;4871873;29;20108;-88
2022/06/23 08:24:58;;;;;;;0.22;0.22;;;35.10;73.60;;;;;;4888193;29;20445;-87
2022/06/23 08:27:28;;;;;;;0.95;0.70;;;34.90;71.90;;;;;;4892935;29;20071;-87
2022/06/23 08:29:56;;;;;;;0.10;0.10;;;35.10;70.70;;;;;;4883226;29;20044;-87
2022/06/23 08:32:23;;;;;;;0.10;0.10;;;34.80;72.10;;;;;;4888937;29;20457;-87
2022/06/23 08:35:14;;;;;;;0.28;0.28;;;35.10;74.20;;;;;;4875244;29;20032;-88
2022/06/23 08:38:01;;;;;;;0.40;0.40;;;35.40;72.20;;;;;;4873960;29;20048;-87
2022/06/23 08:40:49;;;;;;;0.20;0.20;;;35.60;70.20;;;;;;4871918;29;20064;-87
2022/06/23 08:43:37;;;;;;;0.55;0.55;;;35.80;73.60;;;;;;4882986;23;20473;-83
2022/06/23 08:46:06;;;;;;;0.35;0.35;;;36.00;71.00;;;;;;4871781;29;20046;-82
2022/06/23 08:48:42;;;;;;;0.17;0.17;;;36.30;69.10;;;;;;4872869;29;20041;-82
2022/06/23 08:51:19;;;;;;;0.35;0.35;;;36.30;69.10;;;;;;4887493;29;20074;-82
2022/06/23 08:54:17;;;;;;;0.10;0.10;;;36.30;67.80;;;;;;4869172;29;20041;-83
2022/06/23 08:57:18;;;;;;;0.55;0.55;;;36.50;69.70;;;;;;4873830;29;20046;-82
2022/06/23 08:59:51;;;;;;;0.20;0.20;;;36.70;67.50;;;;;;4854808;29;20083;-83
2022/06/23 09:02:41;;;;;;;0.10;0.10;;;36.60;67.80;;;;;;4859799;29;20488;-82
2022/06/23 09:05:28;;;;;;;0.10;0.10;;;36.30;67.20;;;;;;4873129;29;20106;-83
2022/06/23 09:07:59;;;;;;;0.35;0.35;;;36.10;67.60;;;;;;4892107;29;20096;-88
2022/06/23 09:10:52;;;;;;;0.10;0.10;;;35.70;67.40;;;;;;4856034;29;20476;-89
2022/06/23 09:13:43;;;;;;;0.28;0.28;;;35.50;66.60;;;;;;4858405;29;20049;-88
2022/06/23 09:16:32;;;;;;;0.10;0.10;;;35.80;68.90;;;;;;4872443;29;20049;-89
2022/06/23 09:19:15;;;;;;;0.20;0.20;;;36.10;68.70;;;;;;4869687;29;20096;-89
2022/06/23 09:21:58;;;;;;;0.25;0.25;;;36.20;67.20;;;;;;4874500;29;20045;-89
2022/06/23 09:25:05;;;;;;;0.38;0.38;;;36.10;67.30;;;;;;4869965;29;20089;-89
2022/06/23 09:28:01;;;;;;;0.30;0.30;;;36.40;67.90;;;;;;4866705;29;20073;-90
2022/06/23 09:30:38;;;;;;;0.00;0.00;;;36.90;66.60;;;;;;4859170;29;20109;-90
2022/06/23 09:33:42;;;;;;;0.13;0.13;;;37.30;64.00;;;;;;4856325;29;20128;-90
2022/06/23 09:36:34;;;;;;;0.10;0.10;;;37.20;66.30;;;;;;4875017;29;20132;-89
2022/06/23 09:39:30;;;;;;;0.32;0.30;;;36.90;68.40;;;;;;4871442;29;20112;-89
2022/06/23 09:42:24;;;;;;;0.30;0.30;;;36.90;64.00;;;;;;4884166;29;20064;-89
2022/06/23 09:45:11;;;;;;;0.00;0.00;;;37.20;63.40;;;;;;4882551;29;20057;-88
2022/06/23 09:48:18;;;;;;;0.15;0.15;;;37.40;66.70;;;;;;4856371;29;20109;-88
2022/06/23 09:51:01;;;;;;;7.22;0.50;;;37.20;64.30;;;;;;4869289;29;20395;-88
2022/06/23 09:54:02;;;;;;;1.33;0.75;;;36.90;64.60;;;;;;4867671;29;20408;-88
2022/06/23 09:57:08;;;;;;;0.57;0.43;;;37.20;64.00;;;;;;4855794;29;20075;-89
2022/06/23 09:59:52;;;;;;;;;;;37.50;62.70;;;;;;4876188;29;20049;-89
2022/06/23 10:02:34;;;;;;;0.28;0.20;;;37.00;61.40;;;;;;4857802;29;19920;-89
2022/06/23 10:05:03;;;;;;;0.20;0.20;;;37.00;64.20;;;;;;4867536;29;20041;-89
2022/06/23 10:07:52;;;;;;;0.20;0.20;;;37.20;66.00;;;;;;4872918;29;20070;-89
2022/06/23 10:10:42;;;;;;;0.35;0.35;;;37.90;64.10;;;;;;4873749;29;20049;-89
2022/06/23 10:13:23;;;;;;;0.20;0.20;;;38.30;61.30;;;;;;4872139;29;20123;-89
2022/06/23 10:16:14;;;;;;;0.43;0.43;;;38.40;61.10;;;;;;4873067;29;20077;-89
2022/06/23 10:19:10;;;;;;;0.90;0.88;;;38.50;61.00;;;;;;4875125;29;20082;-89
2022/06/23 10:21:54;;;;;;;;;;;38.00;59.80;;;;;;4872863;29;20447;-89
2022/06/23 10:24:22;;;;;;;0.30;0.30;;;37.70;61.80;;;;;;4868477;29;20279;-88
2022/06/23 10:27:16;;;;;;;0.30;0.30;;;37.70;61.90;;;;;;4869996;29;20531;-88
2022/06/23 10:30:03;;;;;;;0.75;0.25;;;37.50;61.80;;;;;;4868436;29;20045;-82
2022/06/23 10:33:08;;;;;;;0.22;0.22;;;37.20;61.70;;;;;;4887664;29;20045;-82
2022/06/23 10:35:51;;;;;;;0.20;0.20;;;37.00;62.90;;;;;;4858792;29;20059;-81
2022/06/23 10:38:41;;;;;;;0.52;0.52;;;37.10;62.00;;;;;;4875341;29;20103;-82
2022/06/23 10:41:42;;;;;;;0.10;0.10;;;37.50;62.60;;;;;;4858618;29;20045;-82
2022/06/23 10:44:30;;;;;;;0.25;0.25;;;38.10;62.40;;;;;;4866738;29;20057;-82
2022/06/23 10:47:05;;;;;;;0.15;0.15;;;38.40;61.50;;;;;;4855065;29;20128;-88
2022/06/23 10:49:53;;;;;;;0.32;0.32;;;38.40;59.20;;;;;;4874374;29;20037;-86
2022/06/23 10:52:39;;;;;;;0.10;0.10;;;38.20;58.30;;;;;;4872760;29;20116;-88
2022/06/23 10:55:24;;;;;;;0.43;0.43;;;38.10;60.90;;;;;;4869089;29;20056;-88
2022/06/23 10:57:50;;;;;;;0.17;0.17;;;38.10;59.10;;;;;;4869643;29;20045;-88
2022/06/23 11:00:20;;;;;;;0.22;0.22;;;38.10;59.60;;;;;;4853918;29;20059;-88
2022/06/23 11:03:39;;;;;;;0.25;0.25;;;38.20;60.00;;;;;;4852029;29;20052;-81
2022/06/23 11:06:35;;;;;;;0.20;0.20;;;38.10;59.60;;;;;;4821972;29;20082;-81
2022/06/23 11:09:29;;;;;;;0.17;0.17;;;37.80;59.50;;;;;;4869998;29;20045;-81
2022/06/23 11:12:02;;;;;;;0.15;0.15;;;37.60;59.50;;;;;;4868576;29;20495;-81
2022/06/23 11:14:44;;;;;;;0.10;0.10;;;37.70;58.20;;;;;;4871257;29;20380;-81
2022/06/23 11:17:22;;;;;;;0.75;0.40;;;37.70;60.60;;;;;;4867455;29;20041;-81
2022/06/23 11:20:23;;;;;;;0.20;0.20;;;37.90;59.60;;;;;;4869806;29;20081;-82
2022/06/23 11:22:54;;;;;;;0.20;0.20;;;37.60;58.50;;;;;;4870293;29;20381;-79
2022/06/23 11:26:09;;;;;;;0.30;0.30;;;37.00;58.80;;;;;;4885956;29;20047;-79
2022/06/23 11:29:11;;;;;;;0.22;0.20;;;37.00;63.60;;;;;;4856107;29;20049;-79
2022/06/23 11:31:49;;;;;;;0.47;0.47;;;36.50;59.40;;;;;;4884103;29;20057;-79
2022/06/23 11:34:27;;;;;;;0.20;0.20;;;36.30;59.30;;;;;;4869166;29;20069;-79
2022/06/23 11:37:35;;;;;;;0.20;0.20;;;36.20;61.50;;;;;;4872504;29;20060;-86
2022/06/23 11:40:36;;;;;;;0.15;0.15;;;36.00;60.60;;;;;;4873887;29;20055;-86
2022/06/23 11:43:20;;;;;;;0.25;0.20;;;36.30;62.20;;;;;;4870053;29;20049;-86
2022/06/23 11:46:14;;;;;;;0.10;0.10;;;36.20;61.10;;;;;;4872900;29;20084;-86
2022/06/23 11:49:23;;;;;;;0.43;0.43;;;36.40;62.90;;;;;;4869555;29;20056;-87
2022/06/23 11:51:55;;;;;;;0.20;0.20;;;37.00;63.10;;;;;;4824101;29;20049;-86
2022/06/23 11:54:43;;;;;;;0.40;0.35;;;37.40;61.30;;;;;;4864778;29;20045;-79
2022/06/23 11:57:28;;;;;;;1.67;0.50;;;37.60;62.30;;;;;;4856916;29;20433;-79
2022/06/23 12:00:09;;;;;;;0.45;0.45;;;37.60;59.90;;;;;;4868914;29;20056;-79
2022/06/23 12:03:16;;;;;;;0.73;0.70;;;37.40;60.00;;;;;;4853594;29;20037;-79
2022/06/23 12:05:52;;;;;;;0.08;0.08;;;37.40;59.40;;;;;;4868601;29;20172;-79
2022/06/23 12:08:52;;;;;;;0.30;0.30;;;36.90;59.30;;;;;;4871494;29;20052;-79
2022/06/23 12:11:18;;;;;;;0.32;0.32;;;36.50;60.90;;;;;;4865269;29;20045;-86
2022/06/23 12:13:44;;;;;;;0.13;0.13;;;36.50;59.40;;;;;;4873282;29;20053;-87
2022/06/23 12:16:10;;;;;;;0.20;0.20;;;36.60;60.80;;;;;;4860849;29;20072;-86
2022/06/23 12:18:43;;;;;;;0.45;0.25;;;36.90;59.80;;;;;;4872676;29;20049;-87
2022/06/23 12:21:40;;;;;;;0.63;0.38;;;37.50;60.40;;;;;;4865318;29;20072;-87
2022/06/23 12:24:33;;;;;;;0.00;0.00;;;37.60;58.70;;;;;;4873276;29;20044;-86
2022/06/23 12:27:05;;;;;;;0.28;0.28;;;37.00;59.40;;;;;;4872353;29;20068;-79
2022/06/23 12:29:55;;;;;;;2.08;0.25;;;37.00;59.60;;;;;;4870422;29;20431;-80
2022/06/23 12:32:44;;;;;;;0.10;0.10;;;36.90;59.40;;;;;;4863549;29;20144;-79
2022/06/23 12:35:15;;;;;;;1.20;0.88;;;36.80;59.70;;;;;;4868863;29;20048;-80
2022/06/23 12:38:17;;;;;;;0.88;0.77;;;36.50;59.10;;;;;;4871003;29;20057;-80
2022/06/23 12:40:53;;;;;;;0.13;0.13;;;36.10;61.20;;;;;;4860908;29;20062;-79
2022/06/23 12:43:45;;;;;;;0.43;0.40;;;36.30;61.70;;;;;;4868102;29;20584;-80
2022/06/23 12:46:41;;;;;;;0.38;0.38;;;36.50;60.10;;;;;;4868582;29;20052;-79
2022/06/23 12:49:22;;;;;;;;;;;36.60;59.40;;;;;;4862951;29;20084;-79
2022/06/23 12:51:54;;;;;;;0.55;0.22;;;36.60;60.00;;;;;;4867675;29;19919;-79
2022/06/23 12:54:52;;;;;;;0.20;0.20;;;37.10;60.40;;;;;;4853343;29;20093;-79
2022/06/23 12:57:57;;;;;;;0.25;0.25;;;37.00;56.70;;;;;;4868279;29;20125;-79
2022/06/23 13:00:50;;;;;;;0.20;0.20;;;37.00;59.20;;;;;;4840227;29;20569;-79
2022/06/23 13:03:24;;;;;;;0.28;0.28;;;37.10;58.70;;;;;;4863898;29;20531;-79
2022/06/23 13:05:57;;;;;;;0.35;0.35;;;37.50;57.60;;;;;;4872904;29;20504;-79
2022/06/23 13:08:29;;;;;;;0.57;0.50;;;37.60;56.50;;;;;;4870611;29;20041;-79
2022/06/23 13:11:03;;;;;;;3.40;0.80;;;37.30;57.40;;;;;;4869472;29;20049;-87
2022/06/23 13:13:39;;;;;;;0.10;0.10;;;37.10;56.20;;;;;;4868335;29;20392;-86
2022/06/23 13:16:17;;;;;;;0.22;0.22;;;37.00;57.00;;;;;;4868558;29;20071;-80
2022/06/23 13:18:52;;;;;;;0.25;0.25;;;37.20;57.70;;;;;;4853428;29;20158;-79
2022/06/23 13:21:32;;;;;;;0.25;0.25;;;37.40;56.80;;;;;;4884494;29;20480;-79
2022/06/23 13:24:00;;;;;;;0.30;0.30;;;37.10;55.20;;;;;;4869974;29;20440;-86
2022/06/23 13:26:34;;;;;;;0.38;0.38;;;36.80;57.20;;;;;;4871880;29;20049;-86
2022/06/23 13:29:14;;;;;;;1.02;0.57;;;36.70;56.80;;;;;;4867227;29;20052;-86
2022/06/23 13:31:57;;;;;;;0.22;0.22;;;36.90;56.70;;;;;;4865548;29;20385;-86
2022/06/23 13:34:27;;;;;;;0.47;0.47;;;36.70;54.50;;;;;;4865150;29;20075;-79
2022/06/23 13:37:17;;;;;;;0.30;0.30;;;36.10;56.00;;;;;;4852841;29;20053;-79
2022/06/23 13:40:14;;;;;;;0.40;0.38;;;35.60;57.10;;;;;;4867966;29;20079;-79
2022/06/23 13:43:01;;;;;;;0.10;0.10;;;35.50;56.20;;;;;;4868926;29;20131;-79
2022/06/23 13:45:43;;;;;;;0.10;0.10;;;35.80;58.00;;;;;;4884478;29;20112;-79
2022/06/23 13:48:20;;;;;;;0.28;0.28;;;36.00;56.30;;;;;;4883925;29;20145;-79
2022/06/23 13:50:57;;;;;;;0.63;0.63;;;36.10;57.60;;;;;;4872950;29;20060;-79
2022/06/23 13:53:36;;;;;;;0.50;0.50;;;36.00;56.10;;;;;;4871240;29;20136;-79
2022/06/23 13:56:29;;;;;;;0.63;0.63;;;35.90;56.70;;;;;;4873232;29;20077;-79
2022/06/23 13:58:58;;;;;;;0.30;0.30;;;35.70;57.00;;;;;;4900908;29;20040;-79
2022/06/23 14:01:34;;;;;;;1.10;0.68;;;35.50;56.20;;;;;;4870274;29;20053;-79
2022/06/23 14:04:25;;;;;;;0.38;0.38;;;35.20;57.00;;;;;;4859972;29;20133;-81